sensor_id;sensor_type;location;lat;lon;timestamp;pressure;altitude;pressure_sealevel;temperature;humidity
54172;BME280;40076;52.354;4.970;2024-02-16T00:01:31;100925.53;;;12.96;100.00
54172;BME280;40076;52.354;4.970;2024-02-16T00:03:59;100922.03;;;12.96;100.00
54172;BME280;40076;52.354;4.970;2024-02-16T00:06:24;100918.06;;;12.93;100.00
54172;BME280;40076;52.354;4.970;2024-02-16T00:08:49;100926.19;;;12.93;100.00
54172;BME280;40076;52.354;4.970;2024-02-16T00:11:15;100917.59;;;12.91;100.00
54172;BME280;40076;52.354;4.970;2024-02-16T00:13:40;100914.41;;;12.89;100.00
54172;BME280;40076;52.354;4.970;2024-02-16T00:16:06;100908.22;;;12.89;100.00
54172;BME280;40076;52.354;4.970;2024-02-16T00:18:31;100910.13;;;12.88;100.00
54172;BME280;40076;52.354;4.970;2024-02-16T00:20:56;100909.66;;;12.86;100.00
54172;BME280;40076;52.354;4.970;2024-02-16T00:23:22;100912.69;;;12.85;100.00
54172;BME280;40076;52.354;4.970;2024-02-16T00:25:49;100911.09;;;12.84;100.00
54172;BME280;40076;52.354;4.970;2024-02-16T00:28:16;100910.66;;;12.82;100.00
54172;BME280;40076;52.354;4.970;2024-02-16T00:30:42;100911.44;;;12.82;100.00
54172;BME280;40076;52.354;4.970;2024-02-16T00:33:07;100902.88;;;12.80;100.00
54172;BME280;40076;52.354;4.970;2024-02-16T00:35:33;100896.31;;;12.81;100.00
54172;BME280;40076;52.354;4.970;2024-02-16T00:37:59;100905.91;;;12.79;100.00
54172;BME280;40076;52.354;4.970;2024-02-16T00:40:25;100907.03;;;12.77;100.00
54172;BME280;40076;52.354;4.970;2024-02-16T00:42:51;100897.75;;;12.79;100.00
54172;BME280;40076;52.354;4.970;2024-02-16T00:45:17;100899.69;;;12.78;100.00
54172;BME280;40076;52.354;4.970;2024-02-16T00:47:42;100904.63;;;12.76;100.00
54172;BME280;40076;52.354;4.970;2024-02-16T00:50:10;100896.81;;;12.74;100.00
54172;BME280;40076;52.354;4.970;2024-02-16T00:52:36;100905.31;;;12.73;100.00
54172;BME280;40076;52.354;4.970;2024-02-16T00:55:04;100899.09;;;12.72;100.00
54172;BME280;40076;52.354;4.970;2024-02-16T00:57:29;100892.09;;;12.71;100.00
54172;BME280;40076;52.354;4.970;2024-02-16T00:59:55;100894.00;;;12.71;100.00
54172;BME280;40076;52.354;4.970;2024-02-16T01:02:23;100890.50;;;12.70;100.00
54172;BME280;40076;52.354;4.970;2024-02-16T01:04:49;100887.31;;;12.68;100.00
54172;BME280;40076;52.354;4.970;2024-02-16T01:07:15;100891.94;;;12.68;100.00
54172;BME280;40076;52.354;4.970;2024-02-16T01:09:41;100894.97;;;12.66;100.00
54172;BME280;40076;52.354;4.970;2024-02-16T01:12:06;100891.81;;;12.64;100.00
54172;BME280;40076;52.354;4.970;2024-02-16T01:14:32;100887.19;;;12.65;100.00
54172;BME280;40076;52.354;4.970;2024-02-16T01:16:59;100882.41;;;12.62;100.00
54172;BME280;40076;52.354;4.970;2024-02-16T01:19:25;100881.63;;;12.61;100.00
54172;BME280;40076;52.354;4.970;2024-02-16T01:21:50;100877.31;;;12.60;100.00
54172;BME280;40076;52.354;4.970;2024-02-16T01:24:18;100883.53;;;12.61;100.00
54172;BME280;40076;52.354;4.970;2024-02-16T01:26:45;100876.53;;;12.60;100.00
54172;BME280;40076;52.354;4.970;2024-02-16T01:29:10;100880.72;;;12.57;100.00
54172;BME280;40076;52.354;4.970;2024-02-16T01:31:36;100879.91;;;12.57;100.00
54172;BME280;40076;52.354;4.970;2024-02-16T01:34:02;100883.44;;;12.57;100.00
54172;BME280;40076;52.354;4.970;2024-02-16T01:36:27;100879.91;;;12.57;100.00
54172;BME280;40076;52.354;4.970;2024-02-16T01:38:52;100883.44;;;12.57;100.00
54172;BME280;40076;52.354;4.970;2024-02-16T01:41:18;100883.44;;;12.57;100.00
54172;BME280;40076;52.354;4.970;2024-02-16T01:43:43;100880.91;;;12.52;100.00
54172;BME280;40076;52.354;4.970;2024-02-16T01:46:09;100884.88;;;12.55;100.00
54172;BME280;40076;52.354;4.970;2024-02-16T01:48:34;100872.44;;;12.54;100.00
54172;BME280;40076;52.354;4.970;2024-02-16T01:51:00;100870.06;;;12.52;100.00
54172;BME280;40076;52.354;4.970;2024-02-16T01:53:27;100855.38;;;12.53;100.00
54172;BME280;40076;52.354;4.970;2024-02-16T01:55:53;100858.09;;;12.53;100.00
54172;BME280;40076;52.354;4.970;2024-02-16T01:58:19;100860.47;;;12.55;100.00
54172;BME280;40076;52.354;4.970;2024-02-16T02:00:44;100863.50;;;12.53;100.00
54172;BME280;40076;52.354;4.970;2024-02-16T02:03:10;100855.06;;;12.55;100.00
54172;BME280;40076;52.354;4.970;2024-02-16T02:05:46;100838.78;;;12.55;100.00
54172;BME280;40076;52.354;4.970;2024-02-16T02:08:12;100837.19;;;12.54;100.00
54172;BME280;40076;52.354;4.970;2024-02-16T02:10:38;100835.63;;;12.53;100.00
54172;BME280;40076;52.354;4.970;2024-02-16T02:13:03;100856.97;;;12.54;100.00
54172;BME280;40076;52.354;4.970;2024-02-16T02:15:28;100854.59;;;12.53;100.00
54172;BME280;40076;52.354;4.970;2024-02-16T02:17:54;100851.09;;;12.52;100.00
54172;BME280;40076;52.354;4.970;2024-02-16T02:20:19;100859.56;;;12.51;100.00
54172;BME280;40076;52.354;4.970;2024-02-16T02:22:45;100858.31;;;12.48;100.00
54172;BME280;40076;52.354;4.970;2024-02-16T02:25:10;100856.38;;;12.49;100.00
54172;BME280;40076;52.354;4.970;2024-02-16T02:27:36;100851.28;;;12.47;100.00
54172;BME280;40076;52.354;4.970;2024-02-16T02:30:04;100833.75;;;12.45;100.00
54172;BME280;40076;52.354;4.970;2024-02-16T02:32:30;100838.38;;;12.44;100.00
54172;BME280;40076;52.354;4.970;2024-02-16T02:34:55;100845.72;;;12.44;100.00
54172;BME280;40076;52.354;4.970;2024-02-16T02:37:21;100834.88;;;12.44;100.00
54172;BME280;40076;52.354;4.970;2024-02-16T02:39:46;100832.84;;;12.41;100.00
54172;BME280;40076;52.354;4.970;2024-02-16T02:42:14;100838.75;;;12.43;100.00
54172;BME280;40076;52.354;4.970;2024-02-16T02:44:39;100837.00;;;12.38;100.00
54172;BME280;40076;52.354;4.970;2024-02-16T02:47:05;100834.28;;;12.38;100.00
54172;BME280;40076;52.354;4.970;2024-02-16T02:49:33;100841.63;;;12.37;100.00
54172;BME280;40076;52.354;4.970;2024-02-16T02:52:00;100833.81;;;12.36;100.00
54172;BME280;40076;52.354;4.970;2024-02-16T02:54:25;100831.47;;;12.34;100.00
54172;BME280;40076;52.354;4.970;2024-02-16T02:56:50;100830.19;;;12.32;100.00
54172;BME280;40076;52.354;4.970;2024-02-16T02:59:16;100834.50;;;12.33;100.00
54172;BME280;40076;52.354;4.970;2024-02-16T03:01:41;100828.63;;;12.31;100.00
54172;BME280;40076;52.354;4.970;2024-02-16T03:04:09;100828.63;;;12.31;100.00
54172;BME280;40076;52.354;4.970;2024-02-16T03:06:35;100830.53;;;12.30;100.00
54172;BME280;40076;52.354;4.970;2024-02-16T03:09:00;100830.06;;;12.28;100.00
54172;BME280;40076;52.354;4.970;2024-02-16T03:11:28;100831.22;;;12.27;100.00
54172;BME280;40076;52.354;4.970;2024-02-16T03:13:53;100826.59;;;12.28;100.00
54172;BME280;40076;52.354;4.970;2024-02-16T03:16:19;100823.06;;;12.27;100.00
54172;BME280;40076;52.354;4.970;2024-02-16T03:18:44;100823.41;;;12.26;100.00
54172;BME280;40076;52.354;4.970;2024-02-16T03:21:13;100821.47;;;12.26;100.00
54172;BME280;40076;52.354;4.970;2024-02-16T03:23:41;100817.66;;;12.27;100.00
54172;BME280;40076;52.354;4.970;2024-02-16T03:26:13;100816.41;;;12.25;100.00
54172;BME280;40076;52.354;4.970;2024-02-16T03:28:39;100816.06;;;12.26;100.00
54172;BME280;40076;52.354;4.970;2024-02-16T03:31:05;100815.28;;;12.26;100.00
54172;BME280;40076;52.354;4.970;2024-02-16T03:33:30;100811.44;;;12.27;100.00
54172;BME280;40076;52.354;4.970;2024-02-16T03:35:56;100808.25;;;12.25;100.00
54172;BME280;40076;52.354;4.970;2024-02-16T03:38:21;100809.06;;;12.25;100.00
54172;BME280;40076;52.354;4.970;2024-02-16T03:40:47;100807.00;;;12.22;100.00
54172;BME280;40076;52.354;4.970;2024-02-16T03:43:12;100812.09;;;12.24;100.00
54172;BME280;40076;52.354;4.970;2024-02-16T03:45:40;100808.13;;;12.21;100.00
54172;BME280;40076;52.354;4.970;2024-02-16T03:48:06;100810.81;;;12.21;100.00
54172;BME280;40076;52.354;4.970;2024-02-16T03:50:31;100803.50;;;12.22;100.00
54172;BME280;40076;52.354;4.970;2024-02-16T03:52:57;100813.53;;;12.21;100.00
54172;BME280;40076;52.354;4.970;2024-02-16T03:55:22;100816.59;;;12.20;100.00
54172;BME280;40076;52.354;4.970;2024-02-16T03:57:47;100813.09;;;12.19;100.00
54172;BME280;40076;52.354;4.970;2024-02-16T04:00:13;100804.16;;;12.19;100.00
54172;BME280;40076;52.354;4.970;2024-02-16T04:02:41;100804.81;;;12.16;100.00
54172;BME280;40076;52.354;4.970;2024-02-16T04:05:07;100810.25;;;12.16;100.00
54172;BME280;40076;52.354;4.970;2024-02-16T04:07:33;100818.38;;;12.16;100.00
54172;BME280;40076;52.354;4.970;2024-02-16T04:09:59;100810.25;;;12.16;100.00
54172;BME280;40076;52.354;4.970;2024-02-16T04:12:25;100812.94;;;12.16;100.00
54172;BME280;40076;52.354;4.970;2024-02-16T04:14:51;100809.44;;;12.15;100.00
54172;BME280;40076;52.354;4.970;2024-02-16T04:17:19;100803.69;;;12.17;100.00
54172;BME280;40076;52.354;4.970;2024-02-16T04:19:44;100803.69;;;12.17;100.00
54172;BME280;40076;52.354;4.970;2024-02-16T04:22:09;100803.38;;;12.18;100.00
54172;BME280;40076;52.354;4.970;2024-02-16T04:24:38;100796.38;;;12.17;100.00
54172;BME280;40076;52.354;4.970;2024-02-16T04:27:03;100793.66;;;12.17;100.00
54172;BME280;40076;52.354;4.970;2024-02-16T04:29:28;100789.38;;;12.16;100.00
54172;BME280;40076;52.354;4.970;2024-02-16T04:31:56;100792.06;;;12.16;100.00
54172;BME280;40076;52.354;4.970;2024-02-16T04:34:21;100794.31;;;12.14;100.00
54172;BME280;40076;52.354;4.970;2024-02-16T04:36:47;100802.09;;;12.16;100.00
54172;BME280;40076;52.354;4.970;2024-02-16T04:39:12;100805.94;;;12.15;100.00
54172;BME280;40076;52.354;4.970;2024-02-16T04:41:40;100812.94;;;12.16;100.00
54172;BME280;40076;52.354;4.970;2024-02-16T04:44:05;100815.66;;;12.16;100.00
54172;BME280;40076;52.354;4.970;2024-02-16T04:46:30;100816.78;;;12.15;100.00
54172;BME280;40076;52.354;4.970;2024-02-16T04:48:58;100805.50;;;12.13;100.00
54172;BME280;40076;52.354;4.970;2024-02-16T04:51:23;100812.94;;;12.16;100.00
54172;BME280;40076;52.354;4.970;2024-02-16T04:53:49;100802.91;;;12.16;100.00
54172;BME280;40076;52.354;4.970;2024-02-16T04:56:14;100802.44;;;12.14;100.00
54172;BME280;40076;52.354;4.970;2024-02-16T04:58:41;100805.63;;;12.16;100.00
54172;BME280;40076;52.354;4.970;2024-02-16T05:01:06;100800.53;;;12.15;100.00
54172;BME280;40076;52.354;4.970;2024-02-16T05:03:32;100804.69;;;12.12;100.00
54172;BME280;40076;52.354;4.970;2024-02-16T05:05:57;100810.13;;;12.12;100.00
54172;BME280;40076;52.354;4.970;2024-02-16T05:08:23;100803.09;;;12.11;100.00
54172;BME280;40076;52.354;4.970;2024-02-16T05:10:48;100797.69;;;12.11;100.00
54172;BME280;40076;52.354;4.970;2024-02-16T05:13:13;100791.81;;;12.09;100.00
54172;BME280;40076;52.354;4.970;2024-02-16T05:15:39;100797.53;;;12.08;100.00
54172;BME280;40076;52.354;4.970;2024-02-16T05:18:07;100795.50;;;12.05;100.00
54172;BME280;40076;52.354;4.970;2024-02-16T05:20:33;100785.00;;;12.03;100.00
54172;BME280;40076;52.354;4.970;2024-02-16T05:22:58;100793.91;;;12.04;100.00
54172;BME280;40076;52.354;4.970;2024-02-16T05:25:23;100791.88;;;12.01;100.00
54172;BME280;40076;52.354;4.970;2024-02-16T05:27:49;100791.88;;;12.01;100.00
54172;BME280;40076;52.354;4.970;2024-02-16T05:30:14;100788.34;;;12.00;100.00
54172;BME280;40076;52.354;4.970;2024-02-16T05:32:43;100793.78;;;12.00;100.00
54172;BME280;40076;52.354;4.970;2024-02-16T05:35:12;100801.09;;;11.99;100.00
54172;BME280;40076;52.354;4.970;2024-02-16T05:37:46;100805.72;;;11.99;100.00
54172;BME280;40076;52.354;4.970;2024-02-16T05:40:19;100798.28;;;11.96;100.00
54172;BME280;40076;52.354;4.970;2024-02-16T05:42:51;100795.25;;;11.97;100.00
54172;BME280;40076;52.354;4.970;2024-02-16T05:45:17;100801.44;;;11.98;100.00
54172;BME280;40076;52.354;4.970;2024-02-16T05:47:44;100804.94;;;11.98;100.00
54172;BME280;40076;52.354;4.970;2024-02-16T05:50:13;100799.50;;;11.98;100.00
54172;BME280;40076;52.354;4.970;2024-02-16T05:52:40;100798.72;;;11.98;100.00
54172;BME280;40076;52.354;4.970;2024-02-16T05:55:07;100808.78;;;11.97;100.00
54172;BME280;40076;52.354;4.970;2024-02-16T05:57:33;100809.09;;;11.96;100.00
54172;BME280;40076;52.354;4.970;2024-02-16T05:59:58;100806.41;;;11.96;100.00
54172;BME280;40076;52.354;4.970;2024-02-16T06:02:24;100814.03;;;11.94;100.00
54172;BME280;40076;52.354;4.970;2024-02-16T06:04:53;100819.47;;;11.94;100.00
54172;BME280;40076;52.354;4.970;2024-02-16T06:07:20;100824.41;;;11.92;100.00
54172;BME280;40076;52.354;4.970;2024-02-16T06:09:46;100815.50;;;11.91;100.00
54172;BME280;40076;52.354;4.970;2024-02-16T06:12:11;100822.81;;;11.91;100.00
54172;BME280;40076;52.354;4.970;2024-02-16T06:14:38;100827.91;;;11.92;100.00
54172;BME280;40076;52.354;4.970;2024-02-16T06:17:03;100835.56;;;11.90;100.00
54172;BME280;40076;52.354;4.970;2024-02-16T06:19:29;100827.13;;;11.92;100.00
54172;BME280;40076;52.354;4.970;2024-02-16T06:21:55;100830.94;;;11.91;100.00
54172;BME280;40076;52.354;4.970;2024-02-16T06:24:23;100833.66;;;11.91;100.00
54172;BME280;40076;52.354;4.970;2024-02-16T06:26:49;100827.59;;;11.94;100.00
54172;BME280;40076;52.354;4.970;2024-02-16T06:29:17;100836.03;;;11.92;100.00
54172;BME280;40076;52.354;4.970;2024-02-16T06:31:46;100844.94;;;11.93;100.00
54172;BME280;40076;52.354;4.970;2024-02-16T06:34:13;100846.06;;;11.92;100.00
54172;BME280;40076;52.354;4.970;2024-02-16T06:36:41;100844.16;;;11.92;100.00
54172;BME280;40076;52.354;4.970;2024-02-16T06:39:06;100842.91;;;11.90;100.00
54172;BME280;40076;52.354;4.970;2024-02-16T06:41:34;100847.19;;;11.91;100.00
54172;BME280;40076;52.354;4.970;2024-02-16T06:43:59;100846.38;;;11.90;100.00
54172;BME280;40076;52.354;4.970;2024-02-16T06:46:27;100857.22;;;11.90;100.00
54172;BME280;40076;52.354;4.970;2024-02-16T06:48:54;100851.03;;;11.90;100.00
54172;BME280;40076;52.354;4.970;2024-02-16T06:51:24;100847.53;;;11.89;100.00
54172;BME280;40076;52.354;4.970;2024-02-16T06:53:51;100857.56;;;11.89;100.00
54172;BME280;40076;52.354;4.970;2024-02-16T06:56:16;100849.88;;;11.91;100.00
54172;BME280;40076;52.354;4.970;2024-02-16T06:58:43;100858.00;;;11.91;100.00
54172;BME280;40076;52.354;4.970;2024-02-16T07:01:09;100861.06;;;11.89;100.00
54172;BME280;40076;52.354;4.970;2024-02-16T07:03:34;100859.94;;;11.90;100.00
54172;BME280;40076;52.354;4.970;2024-02-16T07:06:03;100870.00;;;11.90;100.00
54172;BME280;40076;52.354;4.970;2024-02-16T07:08:29;100860.72;;;11.91;100.00
54172;BME280;40076;52.354;4.970;2024-02-16T07:10:54;100868.84;;;11.91;100.00
54172;BME280;40076;52.354;4.970;2024-02-16T07:13:22;100868.53;;;11.92;100.00
54172;BME280;40076;52.354;4.970;2024-02-16T07:15:47;100871.56;;;11.91;100.00
54172;BME280;40076;52.354;4.970;2024-02-16T07:18:13;100871.22;;;11.92;100.00
54172;BME280;40076;52.354;4.970;2024-02-16T07:20:38;100882.06;;;11.92;100.00
54172;BME280;40076;52.354;4.970;2024-02-16T07:23:03;100875.53;;;11.93;100.00
54172;BME280;40076;52.354;4.970;2024-02-16T07:25:29;100879.03;;;11.94;100.00
54172;BME280;40076;52.354;4.970;2024-02-16T07:27:54;100881.41;;;11.95;100.00
54172;BME280;40076;52.354;4.970;2024-02-16T07:30:20;100884.44;;;11.94;100.00
54172;BME280;40076;52.354;4.970;2024-02-16T07:32:51;100885.25;;;11.94;100.00
54172;BME280;40076;52.354;4.970;2024-02-16T07:35:18;100885.72;;;11.96;100.00
54172;BME280;40076;52.354;4.970;2024-02-16T07:37:46;100889.22;;;11.97;100.00
54172;BME280;40076;52.354;4.970;2024-02-16T07:40:13;100897.34;;;11.97;100.00
54172;BME280;40076;52.354;4.970;2024-02-16T07:42:40;100897.34;;;11.97;100.00
54172;BME280;40076;52.354;4.970;2024-02-16T07:45:08;100906.28;;;11.97;100.00
54172;BME280;40076;52.354;4.970;2024-02-16T07:47:34;100910.91;;;11.97;100.00
54172;BME280;40076;52.354;4.970;2024-02-16T07:50:03;100916.31;;;11.97;100.00
54172;BME280;40076;52.354;4.970;2024-02-16T07:52:29;100917.88;;;11.98;100.00
54172;BME280;40076;52.354;4.970;2024-02-16T07:54:57;100932.22;;;11.98;100.00
54172;BME280;40076;52.354;4.970;2024-02-16T07:57:23;100933.00;;;11.99;100.00
54172;BME280;40076;52.354;4.970;2024-02-16T07:59:52;100940.81;;;12.01;100.00
54172;BME280;40076;52.354;4.970;2024-02-16T08:02:17;100940.00;;;12.00;100.00
54172;BME280;40076;52.354;4.970;2024-02-16T08:04:53;100943.50;;;12.01;100.00
54172;BME280;40076;52.354;4.970;2024-02-16T08:07:19;100940.50;;;12.02;100.00
54172;BME280;40076;52.354;4.970;2024-02-16T08:09:50;100938.91;;;12.01;100.00
54172;BME280;40076;52.354;4.970;2024-02-16T08:12:19;100942.41;;;12.02;100.00
54172;BME280;40076;52.354;4.970;2024-02-16T08:14:50;100945.91;;;12.02;100.00
54172;BME280;40076;52.354;4.970;2024-02-16T08:17:28;100963.75;;;12.03;100.00
54172;BME280;40076;52.354;4.970;2024-02-16T08:19:54;100954.50;;;12.04;100.00
54172;BME280;40076;52.354;4.970;2024-02-16T08:22:22;100968.50;;;12.06;100.00
54172;BME280;40076;52.354;4.970;2024-02-16T08:24:48;100960.06;;;12.08;100.00
54172;BME280;40076;52.354;4.970;2024-02-16T08:27:15;100965.94;;;12.10;100.00
54172;BME280;40076;52.354;4.970;2024-02-16T08:29:50;100975.34;;;12.12;100.00
54172;BME280;40076;52.354;4.970;2024-02-16T08:32:27;100979.16;;;12.11;100.00
54172;BME280;40076;52.354;4.970;2024-02-16T08:34:58;100978.84;;;12.13;100.00
54172;BME280;40076;52.354;4.970;2024-02-16T08:37:24;100979.28;;;12.15;100.00
54172;BME280;40076;52.354;4.970;2024-02-16T08:39:49;100976.28;;;12.16;100.00
54172;BME280;40076;52.354;4.970;2024-02-16T08:42:17;100991.09;;;12.19;100.00
54172;BME280;40076;52.354;4.970;2024-02-16T08:44:50;100993.13;;;12.22;100.00
54172;BME280;40076;52.354;4.970;2024-02-16T08:47:15;100990.91;;;12.24;100.00
54172;BME280;40076;52.354;4.970;2024-02-16T08:49:41;101002.53;;;12.24;100.00
54172;BME280;40076;52.354;4.970;2024-02-16T08:52:09;100999.50;;;12.26;100.00
54172;BME280;40076;52.354;4.970;2024-02-16T08:54:35;101002.34;;;12.29;100.00
54172;BME280;40076;52.354;4.970;2024-02-16T08:57:02;101005.22;;;12.33;100.00
54172;BME280;40076;52.354;4.970;2024-02-16T08:59:27;101006.47;;;12.35;100.00
54172;BME280;40076;52.354;4.970;2024-02-16T09:01:55;101018.25;;;12.40;100.00
54172;BME280;40076;52.354;4.970;2024-02-16T09:04:20;101026.84;;;12.42;100.00
54172;BME280;40076;52.354;4.970;2024-02-16T09:06:46;101022.66;;;12.44;100.00
54172;BME280;40076;52.354;4.970;2024-02-16T09:09:12;101012.31;;;12.46;100.00
54172;BME280;40076;52.354;4.970;2024-02-16T09:11:41;101028.72;;;12.50;100.00
54172;BME280;40076;52.354;4.970;2024-02-16T09:14:12;101034.59;;;12.52;100.00
54172;BME280;40076;52.354;4.970;2024-02-16T09:16:38;101036.19;;;12.53;100.00
54172;BME280;40076;52.354;4.970;2024-02-16T09:19:05;101046.38;;;12.56;100.00
54172;BME280;40076;52.354;4.970;2024-02-16T09:21:31;101053.41;;;12.57;100.00
54172;BME280;40076;52.354;4.970;2024-02-16T09:23:56;101059.28;;;12.59;100.00
54172;BME280;40076;52.354;4.970;2024-02-16T09:26:26;101070.91;;;12.59;100.00
54172;BME280;40076;52.354;4.970;2024-02-16T09:28:55;101074.88;;;12.62;100.00
54172;BME280;40076;52.354;4.970;2024-02-16T09:31:20;101077.59;;;12.62;100.00
54172;BME280;40076;52.354;4.970;2024-02-16T09:33:46;101087.31;;;12.63;100.00
54172;BME280;40076;52.354;4.970;2024-02-16T09:36:21;101088.13;;;12.63;100.00
54172;BME280;40076;52.354;4.970;2024-02-16T09:38:48;101090.16;;;12.66;100.00
54172;BME280;40076;52.354;4.970;2024-02-16T09:41:16;101092.56;;;12.68;100.00
54172;BME280;40076;52.354;4.970;2024-02-16T09:43:44;101091.75;;;12.67;100.00
54172;BME280;40076;52.354;4.970;2024-02-16T09:46:17;101096.75;;;12.65;100.00
54172;BME280;40076;52.354;4.970;2024-02-16T09:48:49;101113.00;;;12.65;100.00
54172;BME280;40076;52.354;4.970;2024-02-16T09:51:20;101118.75;;;12.64;100.00
54172;BME280;40076;52.354;4.970;2024-02-16T09:53:50;101117.16;;;12.63;100.00
54172;BME280;40076;52.354;4.970;2024-02-16T09:56:26;101131.03;;;12.61;100.00
54172;BME280;40076;52.354;4.970;2024-02-16T09:58:51;101132.47;;;12.59;100.00
54172;BME280;40076;52.354;4.970;2024-02-16T10:01:21;101145.56;;;12.57;100.00
54172;BME280;40076;52.354;4.970;2024-02-16T10:03:47;101144.59;;;12.53;100.00
54172;BME280;40076;52.354;4.970;2024-02-16T10:06:13;101153.06;;;12.51;100.00
54172;BME280;40076;52.354;4.970;2024-02-16T10:08:54;101157.22;;;12.49;100.00
54172;BME280;40076;52.354;4.970;2024-02-16T10:11:21;101170.63;;;12.45;100.00
54172;BME280;40076;52.354;4.970;2024-02-16T10:17:29;101183.38;;;12.36;100.00
54172;BME280;40076;52.354;4.970;2024-02-16T10:20:20;101192.16;;;12.33;100.00
54172;BME280;40076;52.354;4.970;2024-02-16T10:23:18;101191.19;;;12.29;100.00
54172;BME280;40076;52.354;4.970;2024-02-16T10:25:44;101208.91;;;12.26;100.00
54172;BME280;40076;52.354;4.970;2024-02-16T10:31:36;101225.66;;;12.20;100.00
54172;BME280;40076;52.354;4.970;2024-02-16T10:34:33;101233.63;;;12.16;100.00
54172;BME280;40076;52.354;4.970;2024-02-16T10:37:09;101236.94;;;12.13;100.00
54172;BME280;40076;52.354;4.970;2024-02-16T10:39:35;101231.88;;;12.12;100.00
54172;BME280;40076;52.354;4.970;2024-02-16T10:42:09;101237.63;;;12.10;100.00
54172;BME280;40076;52.354;4.970;2024-02-16T10:44:51;101237.63;;;12.10;100.00
54172;BME280;40076;52.354;4.970;2024-02-16T10:47:20;101251.16;;;12.10;100.00
54172;BME280;40076;52.354;4.970;2024-02-16T10:49:48;101257.69;;;12.09;100.00
54172;BME280;40076;52.354;4.970;2024-02-16T10:52:14;101252.25;;;12.09;100.00
54172;BME280;40076;52.354;4.970;2024-02-16T10:54:42;101251.16;;;12.10;100.00
54172;BME280;40076;52.354;4.970;2024-02-16T10:57:08;101272.03;;;12.10;100.00
54172;BME280;40076;52.354;4.970;2024-02-16T10:59:41;101261.19;;;12.10;100.00
54172;BME280;40076;52.354;4.970;2024-02-16T11:02:11;101270.44;;;12.09;100.00
54172;BME280;40076;52.354;4.970;2024-02-16T11:04:38;101283.66;;;12.10;100.00
54172;BME280;40076;52.354;4.970;2024-02-16T11:07:16;101298.63;;;12.08;100.00
54172;BME280;40076;52.354;4.970;2024-02-16T11:09:43;101289.69;;;12.07;100.00
54172;BME280;40076;52.354;4.970;2024-02-16T11:12:12;101288.91;;;12.07;100.00
54172;BME280;40076;52.354;4.970;2024-02-16T11:17:44;101288.75;;;12.03;100.00
54172;BME280;40076;52.354;4.970;2024-02-16T11:20:12;101291.94;;;12.05;100.00
54172;BME280;40076;52.354;4.970;2024-02-16T11:22:38;101304.69;;;12.05;100.00
54172;BME280;40076;52.354;4.970;2024-02-16T11:25:04;101310.56;;;12.07;100.00
54172;BME280;40076;52.354;4.970;2024-02-16T11:27:31;101314.06;;;12.07;100.00
54172;BME280;40076;52.354;4.970;2024-02-16T11:29:58;101322.69;;;12.09;100.00
54172;BME280;40076;52.354;4.970;2024-02-16T11:32:46;101324.13;;;12.07;100.00
54172;BME280;40076;52.354;4.970;2024-02-16T11:35:14;101339.25;;;12.08;100.00
54172;BME280;40076;52.354;4.970;2024-02-16T11:37:45;101346.13;;;12.05;100.00
54172;BME280;40076;52.354;4.970;2024-02-16T11:40:12;101359.19;;;12.03;100.00
54172;BME280;40076;52.354;4.970;2024-02-16T11:42:38;101353.56;;;11.99;100.00
54172;BME280;40076;52.354;4.970;2024-02-16T11:45:03;101358.19;;;11.99;100.00
54172;BME280;40076;52.354;4.970;2024-02-16T11:47:29;101369.03;;;11.99;100.00
54172;BME280;40076;52.354;4.970;2024-02-16T11:50:04;101373.19;;;11.96;100.00
54172;BME280;40076;52.354;4.970;2024-02-16T11:52:31;101381.63;;;11.95;100.00
54172;BME280;40076;52.354;4.970;2024-02-16T11:54:57;101385.13;;;11.95;100.00
54172;BME280;40076;52.354;4.970;2024-02-16T11:57:26;101384.31;;;11.95;100.00
54172;BME280;40076;52.354;4.970;2024-02-16T11:59:57;101383.03;;;11.92;100.00
54172;BME280;40076;52.354;4.970;2024-02-16T12:02:31;101381.44;;;11.91;100.00
54172;BME280;40076;52.354;4.970;2024-02-16T12:05:00;101383.34;;;11.91;100.00
54172;BME280;40076;52.354;4.970;2024-02-16T12:07:26;101387.34;;;11.93;100.00
54172;BME280;40076;52.354;4.970;2024-02-16T12:09:59;101387.84;;;11.95;100.00
54172;BME280;40076;52.354;4.970;2024-02-16T12:12:26;101399.94;;;11.98;100.00
54172;BME280;40076;52.354;4.970;2024-02-16T12:14:54;101401.53;;;11.99;100.00
54172;BME280;40076;52.354;4.970;2024-02-16T12:17:21;101412.53;;;12.03;100.00
54172;BME280;40076;52.354;4.970;2024-02-16T12:19:47;101419.25;;;12.05;100.00
54172;BME280;40076;52.354;4.970;2024-02-16T12:22:17;101418.13;;;12.06;100.00
54172;BME280;40076;52.354;4.970;2024-02-16T12:24:54;101425.94;;;12.08;100.00
54172;BME280;40076;52.354;4.970;2024-02-16T12:27:30;101436.97;;;12.11;100.00
54172;BME280;40076;52.354;4.970;2024-02-16T12:29:55;101431.03;;;12.09;100.00
54172;BME280;40076;52.354;4.970;2024-02-16T12:32:23;101443.00;;;12.08;100.00
54172;BME280;40076;52.354;4.970;2024-02-16T12:34:48;101446.81;;;12.07;100.00
54172;BME280;40076;52.354;4.970;2024-02-16T12:37:14;101445.69;;;12.08;100.00
54172;BME280;40076;52.354;4.970;2024-02-16T12:39:39;101461.16;;;12.08;100.00
54172;BME280;40076;52.354;4.970;2024-02-16T12:42:07;101460.34;;;12.07;100.00
54172;BME280;40076;52.354;4.970;2024-02-16T12:44:33;101466.56;;;12.08;100.00
54172;BME280;40076;52.354;4.970;2024-02-16T12:46:58;101470.38;;;12.07;100.00
54172;BME280;40076;52.354;4.970;2024-02-16T12:49:26;101471.19;;;12.07;100.00
54172;BME280;40076;52.354;4.970;2024-02-16T12:51:51;101467.69;;;12.07;100.00